createdAt,value
2018-11-04T00:00:03.073Z,18.10
2018-11-04T00:02:33.791Z,18.25
2018-11-04T00:05:04.622Z,19.15
2018-11-04T00:07:35.139Z,18.20
2018-11-04T00:10:15.978Z,18.07
2018-11-04T00:12:46.515Z,17.65
2018-11-04T00:15:17.561Z,18.60
2018-11-04T00:17:48.413Z,17.45
2018-11-04T00:20:19.316Z,18.25
2018-11-04T00:22:50.233Z,18.30
2018-11-04T00:25:21.043Z,17.42
2018-11-04T00:27:51.864Z,19.17
2018-11-04T00:30:23.395Z,17.02
2018-11-04T00:32:54.235Z,18.07
2018-11-04T00:35:24.990Z,18.92
2018-11-04T00:37:55.852Z,17.00
2018-11-04T00:40:26.600Z,17.65
2018-11-04T00:42:57.198Z,18.52
2018-11-04T00:45:28.086Z,17.67
2018-11-04T00:47:59.007Z,16.62
2018-11-04T00:50:29.889Z,17.73
2018-11-04T00:53:00.754Z,16.93
2018-11-04T00:55:31.648Z,18.57
2018-11-04T00:58:02.479Z,17.85
2018-11-04T01:00:33.268Z,18.70
2018-11-04T01:03:04.114Z,17.07
2018-11-04T01:05:35.133Z,18.37
2018-11-04T01:08:06.857Z,17.23
2018-11-04T01:10:37.708Z,18.30
2018-11-04T01:13:08.548Z,18.40
2018-11-04T01:15:39.436Z,18.65
2018-11-04T01:18:10.269Z,17.85
2018-11-04T01:20:40.860Z,19.05
2018-11-04T01:23:11.685Z,17.57
2018-11-04T01:25:42.553Z,18.52
2018-11-04T01:28:13.361Z,18.70
2018-11-04T01:30:44.151Z,19.02
2018-11-04T01:33:14.994Z,18.70
2018-11-04T01:35:45.792Z,18.77
2018-11-04T01:38:16.604Z,18.50
2018-11-04T01:40:47.514Z,20.05
2018-11-04T01:43:18.285Z,19.50
2018-11-04T01:45:49.082Z,18.48
2018-11-04T01:48:19.928Z,19.00
2018-11-04T01:50:50.789Z,17.35
2018-11-04T01:53:21.632Z,19.15
2018-11-04T01:55:52.449Z,18.67
2018-11-04T01:58:23.313Z,18.40
2018-11-04T02:00:54.142Z,19.23
2018-11-04T02:03:25.677Z,20.25
2018-11-04T02:05:56.201Z,19.90
2018-11-04T02:08:27.354Z,18.77
2018-11-04T02:10:58.561Z,17.40
2018-11-04T02:13:29.324Z,19.55
2018-11-04T02:16:00.128Z,17.07
2018-11-04T02:18:31.001Z,16.87
2018-11-04T02:21:01.796Z,18.10
2018-11-04T02:23:32.724Z,20.20
2018-11-04T02:26:03.562Z,18.67
2018-11-04T02:28:34.362Z,18.80
2018-11-04T02:31:05.566Z,19.07
2018-11-04T02:33:36.607Z,18.45
2018-11-04T02:36:07.481Z,19.60
2018-11-04T02:38:38.309Z,17.67
2018-11-04T02:41:09.155Z,18.82
2018-11-04T02:43:39.860Z,19.15
2018-11-04T02:46:10.732Z,19.50
2018-11-04T02:48:41.528Z,18.62
2018-11-04T02:51:12.646Z,19.40
2018-11-04T02:53:43.605Z,19.25
2018-11-04T02:56:14.488Z,19.65
2018-11-04T02:58:45.371Z,19.20
2018-11-04T03:01:16.175Z,18.42
2018-11-04T03:03:47.280Z,19.15
2018-11-04T03:06:18.144Z,19.82
2018-11-04T03:08:49.083Z,20.65
2018-11-04T03:11:19.895Z,20.95
2018-11-04T03:13:51.167Z,18.73
2018-11-04T03:16:22.073Z,19.52
2018-11-04T03:18:52.661Z,20.68
2018-11-04T03:21:23.442Z,20.72
2018-11-04T03:23:54.251Z,18.23
2018-11-04T03:26:25.073Z,19.37
2018-11-04T03:28:56.403Z,19.92
2018-11-04T03:31:34.727Z,18.55
2018-11-04T03:34:05.784Z,18.82
2018-11-04T03:36:36.575Z,18.92
2018-11-04T03:39:09.875Z,19.55
2018-11-04T03:41:41.601Z,18.37
2018-11-04T03:44:12.615Z,19.23
2018-11-04T03:46:43.413Z,19.12
2018-11-04T03:49:14.147Z,17.27
2018-11-04T03:51:44.970Z,19.32
2018-11-04T03:54:15.809Z,20.23
2018-11-04T03:56:46.584Z,20.35
2018-11-04T03:59:17.307Z,21.10
2018-11-04T04:01:48.133Z,20.02
2018-11-04T04:04:18.944Z,20.88
2018-11-04T04:06:50.009Z,23.73
2018-11-04T04:09:20.788Z,19.98
2018-11-04T04:11:51.638Z,21.23
2018-11-04T04:14:22.187Z,21.27
2018-11-04T04:16:53.032Z,22.65
2018-11-04T04:19:23.831Z,22.93
2018-11-04T04:21:54.608Z,22.02
2018-11-04T04:24:25.650Z,24.75
2018-11-04T04:26:56.429Z,25.17
2018-11-04T04:29:27.240Z,25.97
2018-11-04T04:31:58.022Z,25.82
2018-11-04T04:34:29.121Z,26.65
2018-11-04T04:36:59.967Z,26.57
2018-11-04T04:39:30.751Z,26.02
2018-11-04T04:42:01.542Z,24.40
2018-11-04T04:44:32.243Z,26.60
2018-11-04T04:47:03.148Z,27.10
2018-11-04T04:49:33.953Z,25.97
2018-11-04T04:52:04.700Z,22.60
2018-11-04T04:54:35.506Z,24.40
2018-11-04T04:57:06.271Z,27.10
2018-11-04T04:59:37.079Z,23.57
2018-11-04T05:02:07.901Z,25.92
2018-11-04T05:04:38.680Z,23.25
2018-11-04T05:07:09.505Z,24.10
2018-11-04T05:09:39.977Z,24.75
2018-11-04T05:12:11.123Z,23.27
2018-11-04T05:14:41.900Z,25.02
2018-11-04T05:17:12.694Z,25.17
2018-11-04T05:19:43.169Z,25.60
2018-11-04T05:22:14.201Z,25.52
2018-11-04T05:24:44.745Z,25.35
2018-11-04T05:27:15.494Z,26.07
2018-11-04T05:29:46.274Z,24.67
2018-11-04T05:32:17.079Z,25.50
2018-11-04T05:34:47.885Z,25.17
2018-11-04T05:37:18.640Z,24.20
2018-11-04T05:39:49.419Z,25.50
2018-11-04T05:42:20.252Z,25.90
2018-11-04T05:44:50.995Z,25.45
2018-11-04T05:47:21.822Z,24.87
2018-11-04T05:49:52.648Z,24.15
2018-11-04T05:52:23.414Z,22.85
2018-11-04T05:54:54.234Z,23.95
2018-11-04T05:57:25.279Z,25.30
2018-11-04T05:59:56.044Z,23.55
2018-11-04T06:02:27.115Z,24.70
2018-11-04T06:04:57.904Z,25.15
2018-11-04T06:07:28.975Z,25.50
2018-11-04T06:09:59.959Z,23.77
2018-11-04T06:12:30.815Z,25.10
2018-11-04T06:15:01.605Z,24.95
2018-11-04T06:17:32.383Z,22.93
2018-11-04T06:20:03.159Z,23.85
2018-11-04T06:22:34.024Z,22.67
2018-11-04T06:25:05.533Z,23.35
2018-11-04T06:27:36.331Z,22.15
2018-11-04T06:30:09.839Z,24.25
2018-11-04T06:32:40.959Z,24.00
2018-11-04T06:35:11.727Z,23.20
2018-11-04T06:37:42.514Z,25.25
2018-11-04T06:40:13.298Z,23.85
2018-11-04T06:42:44.061Z,23.80
2018-11-04T06:45:14.909Z,24.23
2018-11-04T06:47:45.752Z,26.82
2018-11-04T06:50:16.667Z,24.60
2018-11-04T06:52:47.452Z,24.70
2018-11-04T06:55:18.293Z,23.32
2018-11-04T06:57:49.114Z,23.67
2018-11-04T07:00:19.954Z,23.77
2018-11-04T07:02:50.537Z,24.67
2018-11-04T07:05:21.255Z,23.38
2018-11-04T07:07:52.031Z,24.25
2018-11-04T07:10:22.813Z,25.68
2018-11-04T07:12:53.865Z,23.77
2018-11-04T07:15:24.660Z,24.95
2018-11-04T07:17:55.516Z,22.30
2018-11-04T07:20:26.250Z,21.60
2018-11-04T07:22:57.025Z,23.67
2018-11-04T07:25:27.820Z,23.42
2018-11-04T07:27:58.773Z,23.38
2018-11-04T07:30:29.780Z,22.77
2018-11-04T07:33:00.590Z,24.72
2018-11-04T07:35:31.539Z,24.77
2018-11-04T07:38:02.348Z,22.70
2018-11-04T07:40:33.111Z,22.65
2018-11-04T07:43:03.890Z,22.40
2018-11-04T07:45:34.675Z,23.52
2018-11-04T07:48:05.623Z,22.82
2018-11-04T07:50:36.164Z,23.02
2018-11-04T07:53:07.120Z,21.93
2018-11-04T07:55:37.735Z,22.05
2018-11-04T07:58:08.531Z,22.27
2018-11-04T08:00:39.342Z,21.15
2018-11-04T08:03:10.484Z,23.15
2018-11-04T08:05:42.376Z,21.82
2018-11-04T08:08:13.255Z,23.50
2018-11-04T08:10:44.626Z,20.60
2018-11-04T08:13:15.325Z,22.15
2018-11-04T08:15:46.512Z,21.20
2018-11-04T08:18:17.563Z,20.88
2018-11-04T08:20:48.596Z,20.95
2018-11-04T08:23:19.502Z,22.10
2018-11-04T08:25:50.411Z,22.70
2018-11-04T08:28:21.199Z,24.27
2018-11-04T08:30:51.976Z,20.95
2018-11-04T08:33:22.516Z,21.25
2018-11-04T08:35:53.306Z,22.17
2018-11-04T08:38:23.867Z,20.30
2018-11-04T08:40:54.755Z,20.25
2018-11-04T08:43:25.440Z,19.77
2018-11-04T08:45:56.394Z,18.92
2018-11-04T08:48:27.182Z,19.05
2018-11-04T08:50:57.963Z,19.62
2018-11-04T08:53:28.792Z,20.35
2018-11-04T08:55:59.586Z,20.60
2018-11-04T08:58:30.364Z,19.40
2018-11-04T09:01:01.150Z,20.43
2018-11-04T09:03:31.907Z,18.62
2018-11-04T09:06:02.667Z,20.80
2018-11-04T09:08:33.212Z,21.05
2018-11-04T09:11:04.003Z,21.25
2018-11-04T09:13:34.795Z,21.23
2018-11-04T09:16:05.631Z,19.87
2018-11-04T09:18:36.433Z,21.12
2018-11-04T09:21:07.322Z,22.27
2018-11-04T09:23:38.168Z,21.35
2018-11-04T09:26:09.166Z,20.00
2018-11-04T09:28:40.016Z,20.43
2018-11-04T09:31:11.089Z,20.92
2018-11-04T09:33:41.932Z,20.25
2018-11-04T09:36:12.836Z,20.25
2018-11-04T09:38:43.679Z,20.40
2018-11-04T09:41:14.486Z,20.60
2018-11-04T09:43:45.388Z,21.15
2018-11-04T09:46:15.901Z,19.12
2018-11-04T09:48:46.678Z,21.05
2018-11-04T09:51:17.477Z,21.00
2018-11-04T09:53:48.609Z,18.30
2018-11-04T09:56:19.465Z,17.77
2018-11-04T09:58:50.345Z,19.23
2018-11-04T10:01:21.193Z,20.80
2018-11-04T10:03:52.000Z,19.12
2018-11-04T10:06:22.865Z,19.12
2018-11-04T10:08:53.649Z,19.07
2018-11-04T10:11:24.570Z,16.67
2018-11-04T10:13:55.038Z,18.25
2018-11-04T10:16:26.142Z,19.70
2018-11-04T10:18:57.073Z,17.37
2018-11-04T10:21:28.302Z,18.95
2018-11-04T10:23:59.090Z,18.48
2018-11-04T10:26:29.911Z,19.02
2018-11-04T10:29:00.759Z,17.73
2018-11-04T10:31:31.631Z,17.02
2018-11-04T10:34:02.481Z,16.97
2018-11-04T10:36:33.327Z,17.10
2018-11-04T10:39:05.444Z,17.25
2018-11-04T10:41:36.227Z,16.37
2018-11-04T10:44:06.982Z,16.50
2018-11-04T10:46:37.746Z,15.45
2018-11-04T10:49:08.614Z,17.15
2018-11-04T10:51:39.629Z,15.83
2018-11-04T10:54:10.431Z,16.95
2018-11-04T10:56:41.227Z,17.23
2018-11-04T10:59:12.040Z,14.80
2018-11-04T11:01:42.814Z,16.50
2018-11-04T11:04:13.595Z,17.05
2018-11-04T11:06:44.359Z,16.23
2018-11-04T11:09:15.331Z,16.37
2018-11-04T11:11:46.168Z,17.50
2018-11-04T11:14:16.963Z,16.57
2018-11-04T11:16:47.727Z,17.90
2018-11-04T11:19:18.518Z,18.10
2018-11-04T11:21:49.533Z,18.73
2018-11-04T11:24:20.346Z,17.50
2018-11-04T11:26:51.140Z,18.95
2018-11-04T11:29:21.972Z,19.35
2018-11-04T11:31:52.690Z,18.02
2018-11-04T11:35:26.171Z,18.23
2018-11-04T11:37:57.081Z,17.20
2018-11-04T11:40:27.769Z,18.00
2018-11-04T11:42:58.737Z,18.62
2018-11-04T11:45:29.620Z,19.55
2018-11-04T11:48:00.426Z,18.52
2018-11-04T11:50:31.212Z,19.92
2018-11-04T11:53:02.053Z,19.48
2018-11-04T11:55:32.803Z,20.48
2018-11-04T11:58:03.637Z,19.60
2018-11-04T12:00:34.138Z,18.30
2018-11-04T12:03:05.015Z,18.12
2018-11-04T12:05:35.801Z,19.75
2018-11-04T12:08:06.950Z,19.67
2018-11-04T12:10:37.728Z,20.45
2018-11-04T12:13:08.528Z,20.25
2018-11-04T12:15:39.387Z,21.75
2018-11-04T12:18:10.114Z,21.20
2018-11-04T12:20:41.118Z,20.60
2018-11-04T12:23:11.915Z,21.37
2018-11-04T12:25:42.404Z,19.10
2018-11-04T12:28:13.210Z,17.52
2018-11-04T12:30:44.039Z,19.75
2018-11-04T12:33:14.877Z,21.42
2018-11-04T12:35:45.698Z,20.57
2018-11-04T12:38:16.491Z,19.55
2018-11-04T12:40:47.277Z,21.25
2018-11-04T12:43:18.077Z,18.80
2018-11-04T12:45:48.904Z,20.02
2018-11-04T12:48:21.299Z,20.40
2018-11-04T12:50:52.121Z,19.95
2018-11-04T12:53:22.867Z,20.12
2018-11-04T12:55:53.663Z,18.50
2018-11-04T12:58:24.464Z,19.60
2018-11-04T13:00:55.255Z,22.25
2018-11-04T13:03:25.814Z,18.92
2018-11-04T13:05:56.592Z,19.82
2018-11-04T13:08:27.385Z,17.52
2018-11-04T13:10:58.178Z,18.87
2018-11-04T13:13:29.003Z,17.67
2018-11-04T13:15:59.983Z,17.45
2018-11-04T13:18:30.757Z,17.25
2018-11-04T13:21:01.570Z,17.92
2018-11-04T13:23:32.519Z,16.32
2018-11-04T13:26:03.690Z,17.25
2018-11-04T13:28:34.514Z,14.75
2018-11-04T13:31:08.227Z,15.23
2018-11-04T13:33:39.331Z,14.75
2018-11-04T13:36:10.402Z,15.90
2018-11-04T13:38:41.360Z,16.17
2018-11-04T13:41:12.159Z,15.55
2018-11-04T13:43:42.993Z,16.05
2018-11-04T13:46:13.778Z,15.63
2018-11-04T13:48:44.543Z,15.75
2018-11-04T13:51:15.317Z,15.60
2018-11-04T13:53:46.080Z,16.35
2018-11-04T13:56:16.885Z,15.30
2018-11-04T13:58:47.626Z,16.00
2018-11-04T14:01:18.469Z,14.50
2018-11-04T14:03:49.041Z,14.83
2018-11-04T14:06:19.813Z,16.20
2018-11-04T14:08:50.620Z,14.73
2018-11-04T14:11:21.108Z,14.58
2018-11-04T14:13:51.925Z,14.13
2018-11-04T14:16:22.680Z,14.98
2018-11-04T14:18:53.509Z,13.65
2018-11-04T14:21:24.306Z,15.88
2018-11-04T14:23:55.226Z,14.50
2018-11-04T14:26:26.047Z,17.00
2018-11-04T14:28:56.830Z,14.53
2018-11-04T14:31:28.270Z,13.75
2018-11-04T14:33:59.198Z,15.38
2018-11-04T14:36:30.147Z,15.98
2018-11-04T14:39:00.626Z,13.98
2018-11-04T14:41:31.159Z,13.98
2018-11-04T14:44:01.911Z,14.07
2018-11-04T14:46:32.717Z,14.05
2018-11-04T14:49:03.536Z,15.55
2018-11-04T14:51:34.451Z,13.55
2018-11-04T14:54:06.091Z,13.35
2018-11-04T14:56:37.360Z,14.90
2018-11-04T14:59:08.115Z,15.35
2018-11-04T15:01:39.071Z,14.10
2018-11-04T15:04:09.984Z,14.28
2018-11-04T15:06:40.750Z,15.30
2018-11-04T15:09:11.540Z,14.35
2018-11-04T15:11:42.332Z,14.60
2018-11-04T15:14:13.188Z,13.60
2018-11-04T15:16:44.136Z,13.68
2018-11-04T15:19:15.095Z,12.60
2018-11-04T15:21:46.646Z,14.78
2018-11-04T15:24:17.467Z,14.25
2018-11-04T15:26:48.000Z,13.15
2018-11-04T15:29:18.767Z,13.70
2018-11-04T15:31:49.554Z,12.70
2018-11-04T15:34:20.535Z,13.70
2018-11-04T15:36:51.439Z,12.70
2018-11-04T15:39:22.246Z,12.50
2018-11-04T15:41:52.979Z,12.80
2018-11-04T15:44:23.865Z,11.88
2018-11-04T15:46:54.632Z,12.13
2018-11-04T15:49:25.449Z,12.93
2018-11-04T15:51:56.469Z,11.08
2018-11-04T15:54:27.247Z,12.15
2018-11-04T15:57:05.962Z,12.07
2018-11-04T15:59:36.960Z,11.53
2018-11-04T16:02:07.813Z,11.85
2018-11-04T16:04:44.542Z,11.60
2018-11-04T16:07:09.557Z,11.03
2018-11-04T16:09:40.345Z,11.50
2018-11-04T16:12:11.854Z,12.37
2018-11-04T16:14:42.864Z,11.73
2018-11-04T16:17:13.869Z,12.13
2018-11-04T16:19:44.682Z,11.40
2018-11-04T16:22:15.305Z,11.70
2018-11-04T16:24:46.074Z,13.32
2018-11-04T16:27:16.902Z,11.63
2018-11-04T16:29:47.709Z,12.50
2018-11-04T16:32:18.455Z,10.43
2018-11-04T16:34:49.241Z,12.10
2018-11-04T16:37:20.061Z,11.33
2018-11-04T16:39:50.846Z,13.72
2018-11-04T16:42:22.185Z,11.30
2018-11-04T16:44:53.367Z,13.32
2018-11-04T16:47:24.134Z,13.28
2018-11-04T16:49:55.095Z,14.00
2018-11-04T16:52:26.159Z,13.15
2018-11-04T16:54:56.998Z,13.65
2018-11-04T16:57:27.954Z,14.58
2018-11-04T16:59:58.792Z,14.93
2018-11-04T17:02:29.543Z,14.20
2018-11-04T17:05:00.363Z,14.83
2018-11-04T17:07:31.424Z,14.50
2018-11-04T17:10:02.355Z,14.15
2018-11-04T17:12:33.187Z,15.05
2018-11-04T17:15:04.238Z,16.10
2018-11-04T17:17:35.177Z,15.85
2018-11-04T17:20:14.255Z,14.85
2018-11-04T17:22:45.419Z,14.28
2018-11-04T17:25:17.123Z,15.28
2018-11-04T17:27:47.979Z,15.08
2018-11-04T17:30:19.773Z,14.65
2018-11-04T17:32:50.641Z,15.90
2018-11-04T17:35:21.410Z,17.77
2018-11-04T17:37:52.193Z,17.80
2018-11-04T17:40:23.078Z,14.50
2018-11-04T17:42:53.937Z,14.78
2018-11-04T17:45:24.955Z,15.78
2018-11-04T17:47:56.095Z,15.00
2018-11-04T17:50:26.963Z,15.50
2018-11-04T17:52:57.891Z,15.93
2018-11-04T17:55:28.758Z,14.15
2018-11-04T17:57:59.646Z,14.80
2018-11-04T18:00:30.635Z,16.00
2018-11-04T18:03:01.553Z,14.83
2018-11-04T18:05:33.076Z,14.60
2018-11-04T18:08:08.816Z,13.62
2018-11-04T18:10:40.004Z,13.85
2018-11-04T18:13:14.158Z,13.40
2018-11-04T18:15:45.222Z,13.70
2018-11-04T18:18:16.279Z,12.88
2018-11-04T18:20:47.816Z,14.07
2018-11-04T18:23:18.366Z,14.00
2018-11-04T18:25:49.172Z,15.60
2018-11-04T18:28:20.042Z,13.43
2018-11-04T18:30:50.807Z,14.18
2018-11-04T18:33:21.532Z,14.68
2018-11-04T18:35:52.361Z,16.42
2018-11-04T18:38:23.450Z,16.80
2018-11-04T18:40:54.216Z,14.58
2018-11-04T18:43:24.992Z,13.50
2018-11-04T18:45:55.822Z,13.80
2018-11-04T18:48:26.848Z,12.90
2018-11-04T18:50:57.713Z,13.08
2018-11-04T18:53:28.629Z,14.47
2018-11-04T18:55:59.729Z,13.10
2018-11-04T18:58:30.870Z,12.95
2018-11-04T19:01:01.726Z,12.07
2018-11-04T19:03:32.531Z,13.65
2018-11-04T19:06:03.641Z,11.85
2018-11-04T19:08:34.487Z,13.43
2018-11-04T19:11:05.754Z,15.32
2018-11-04T19:13:37.084Z,14.63
2018-11-04T19:16:08.288Z,13.90
2018-11-04T19:18:39.079Z,12.25
2018-11-04T19:21:10.023Z,14.47
2018-11-04T19:23:40.824Z,11.95
2018-11-04T19:26:11.649Z,13.75
2018-11-04T19:28:42.413Z,13.58
2018-11-04T19:31:13.245Z,17.27
2018-11-04T19:33:44.192Z,14.35
2018-11-04T19:36:15.001Z,15.10
2018-11-04T19:38:45.764Z,15.30
2018-11-04T19:41:16.487Z,13.58
2018-11-04T19:43:47.224Z,14.98
2018-11-04T19:46:18.011Z,14.45
2018-11-04T19:48:48.895Z,13.18
2018-11-04T19:51:19.818Z,12.88
2018-11-04T19:53:50.577Z,13.62
2018-11-04T19:56:21.384Z,15.08
2018-11-04T19:58:52.155Z,15.95
2018-11-04T20:01:23.182Z,16.07
2018-11-04T20:03:54.132Z,14.25
2018-11-04T20:06:24.961Z,13.55
2018-11-04T20:09:01.410Z,14.30
2018-11-04T20:11:31.883Z,15.85
2018-11-04T20:14:07.757Z,14.07
2018-11-04T20:16:38.504Z,15.05
2018-11-04T20:19:14.475Z,14.60
2018-11-04T20:21:45.466Z,13.48
2018-11-04T20:24:21.315Z,15.05
2018-11-04T20:26:52.167Z,14.23
2018-11-04T20:29:23.225Z,14.18
2018-11-04T20:31:59.186Z,15.98
2018-11-04T20:34:30.068Z,17.87
2018-11-04T20:37:00.849Z,16.65
2018-11-04T20:39:36.975Z,15.88
2018-11-04T20:42:08.131Z,17.23
2018-11-04T20:44:44.995Z,14.28
2018-11-04T20:47:16.128Z,15.58
2018-11-04T20:49:52.191Z,16.17
2018-11-04T20:52:22.945Z,15.00
2018-11-04T20:54:53.691Z,15.78
2018-11-04T20:57:29.642Z,17.65
2018-11-04T21:00:01.634Z,15.32
2018-11-04T21:02:32.653Z,14.40
2018-11-04T21:05:03.459Z,16.00
2018-11-04T21:07:34.451Z,14.75
2018-11-04T21:10:07.654Z,15.72
2018-11-04T21:12:38.622Z,13.90
2018-11-04T21:15:09.792Z,15.23
2018-11-04T21:17:40.547Z,15.45
2018-11-04T21:20:11.303Z,14.40
2018-11-04T21:22:42.267Z,17.32
2018-11-04T21:25:13.065Z,18.48
2018-11-04T21:27:44.082Z,16.50
2018-11-04T21:30:15.119Z,15.93
2018-11-04T21:32:45.938Z,16.42
2018-11-04T21:35:16.701Z,16.75
2018-11-04T21:37:47.587Z,15.65
2018-11-04T21:40:18.536Z,15.75
2018-11-04T21:42:49.669Z,17.73
2018-11-04T21:45:20.280Z,16.32
2018-11-04T21:47:51.065Z,15.15
2018-11-04T21:50:23.227Z,14.93
2018-11-04T21:52:53.985Z,15.60
2018-11-04T21:55:24.856Z,14.98
2018-11-04T21:57:55.788Z,17.40
2018-11-04T22:00:26.544Z,14.55
2018-11-04T22:02:57.516Z,14.78
2018-11-04T22:05:28.234Z,16.23
2018-11-04T22:07:59.005Z,12.93
2018-11-04T22:10:29.866Z,14.10
2018-11-04T22:13:00.792Z,14.95
2018-11-04T22:15:31.567Z,15.15
2018-11-04T22:18:02.357Z,14.53
2018-11-04T22:20:33.145Z,14.35
2018-11-04T22:23:03.874Z,14.23
2018-11-04T22:25:34.651Z,15.18
2018-11-04T22:28:05.772Z,13.28
2018-11-04T22:30:36.526Z,14.85
2018-11-04T22:33:07.592Z,15.75
2018-11-04T22:35:38.433Z,15.03
2018-11-04T22:38:09.171Z,14.15
2018-11-04T22:40:39.971Z,16.17
2018-11-04T22:43:10.811Z,16.17
2018-11-04T22:45:41.692Z,15.55
2018-11-04T22:48:12.675Z,17.52
2018-11-04T22:50:43.663Z,16.80
2018-11-04T22:53:14.443Z,15.55
2018-11-04T22:55:45.247Z,15.60
2018-11-04T22:58:16.184Z,17.05
2018-11-04T23:00:51.034Z,15.93
2018-11-04T23:03:21.517Z,15.95
2018-11-04T23:05:52.313Z,16.05
2018-11-04T23:08:23.405Z,17.32
2018-11-04T23:10:53.949Z,16.65
2018-11-04T23:13:24.733Z,16.27
2018-11-04T23:15:55.235Z,16.42
2018-11-04T23:18:26.054Z,15.85
2018-11-04T23:20:57.065Z,13.83
2018-11-04T23:23:27.923Z,16.55
2018-11-04T23:25:58.721Z,17.45
2018-11-04T23:28:29.205Z,16.15
2018-11-04T23:31:00.001Z,16.55
2018-11-04T23:33:30.789Z,15.55
2018-11-04T23:36:01.506Z,17.12
2018-11-04T23:38:32.507Z,16.25
2018-11-04T23:41:03.336Z,16.27
2018-11-04T23:43:34.088Z,16.27
2018-11-04T23:46:04.963Z,15.35
2018-11-04T23:48:35.753Z,15.28
2018-11-04T23:51:06.815Z,14.95
2018-11-04T23:53:37.589Z,16.10
2018-11-04T23:56:08.856Z,14.53
2018-11-04T23:58:39.624Z,15.50
